Time;durP1;ratioP1;P1;durP2;ratioP2;P2;SDS_P1;SDS_P2;PMS_P1;PMS_P2;Temp;Humidity;BMP_temperature;BMP_pressure;BME280_temperature;BME280_humidity;BME280_pressure;Samples;Min_cycle;Max_cycle;Signal;HPM_P1;HPM_P2
2023/04/13 00:00:47;;;;;;;17.98;3.10;;;5.90;99.90;;;;;;5130128;28;20028;-74
2023/04/13 00:03:15;;;;;;;17.10;3.15;;;5.80;99.90;;;;;;5130667;28;20027;-73
2023/04/13 00:05:42;;;;;;;10.80;3.10;;;5.80;99.90;;;;;;5114568;27;20030;-77
2023/04/13 00:08:08;;;;;;;14.18;3.15;;;5.70;99.90;;;;;;5135255;27;20395;-74
2023/04/13 00:10:35;;;;;;;17.48;4.00;;;5.70;99.90;;;;;;5135199;27;20037;-71
2023/04/13 00:13:05;;;;;;;14.20;3.08;;;5.70;99.90;;;;;;5133777;27;20784;-73
2023/04/13 00:15:33;;;;;;;19.70;4.47;;;5.70;99.90;;;;;;5134921;27;20037;-72
2023/04/13 00:17:59;;;;;;;11.82;3.15;;;5.70;99.90;;;;;;5133806;27;20111;-73
2023/04/13 00:20:25;;;;;;;19.55;3.28;;;5.70;99.90;;;;;;5134173;27;20050;-74
2023/04/13 00:22:52;;;;;;;15.13;3.50;;;5.70;99.90;;;;;;5133816;27;20130;-74
2023/04/13 00:25:18;;;;;;;15.93;3.67;;;5.70;99.90;;;;;;5134554;27;20107;-74
2023/04/13 00:27:44;;;;;;;15.68;3.38;;;5.70;99.90;;;;;;5133879;27;20182;-77
2023/04/13 00:30:15;;;;;;;17.70;3.67;;;5.60;99.90;;;;;;5134551;27;20024;-74
2023/04/13 00:32:42;;;;;;;15.13;4.28;;;5.60;99.90;;;;;;5134463;27;20023;-73
2023/04/13 00:35:10;;;;;;;19.00;3.35;;;5.50;99.90;;;;;;5134178;27;20023;-74
2023/04/13 00:37:37;;;;;;;17.48;3.15;;;5.50;99.90;;;;;;5134654;27;20413;-74
2023/04/13 00:40:07;;;;;;;14.05;3.80;;;5.50;99.90;;;;;;5133798;27;20023;-74
2023/04/13 00:42:34;;;;;;;15.63;3.17;;;5.50;99.90;;;;;;5134163;27;20035;-73
2023/04/13 00:44:59;;;;;;;17.50;3.55;;;5.40;99.90;;;;;;5133571;27;20473;-74
2023/04/13 00:47:31;;;;;;;10.73;2.88;;;5.40;99.90;;;;;;5134216;27;20027;-74
2023/04/13 00:50:00;;;;;;;14.30;2.85;;;5.50;99.90;;;;;;5133568;27;20042;-73
2023/04/13 00:52:27;;;;;;;13.75;2.70;;;5.40;99.90;;;;;;5115733;27;20124;-74
2023/04/13 00:54:56;;;;;;;12.57;4.40;;;5.40;99.90;;;;;;5114544;27;20027;-74
2023/04/13 00:57:24;;;;;;;15.43;3.25;;;5.40;99.90;;;;;;5133866;27;20110;-74
2023/04/13 00:59:51;;;;;;;12.48;3.47;;;5.40;99.90;;;;;;5132797;27;20118;-74
2023/04/13 01:02:21;;;;;;;15.95;4.18;;;5.40;99.90;;;;;;5133090;27;20039;-74
2023/04/13 01:04:48;;;;;;;15.98;3.30;;;5.40;99.90;;;;;;5132961;27;20464;-76
2023/04/13 01:07:55;;;;;;;10.27;2.90;;;5.40;99.90;;;;;;5133696;27;20031;-74
2023/04/13 01:10:34;;;;;;;18.20;3.55;;;5.40;99.90;;;;;;5133913;27;20038;-74
2023/04/13 01:13:24;;;;;;;15.35;4.18;;;5.40;99.90;;;;;;5133033;27;20031;-74
2023/04/13 01:16:19;;;;;;;22.70;3.40;;;5.30;99.90;;;;;;5132589;27;20098;-73
2023/04/13 01:18:50;;;;;;;19.77;3.78;;;5.40;99.90;;;;;;5132995;27;20024;-73
2023/04/13 01:21:20;;;;;;;10.57;3.08;;;5.40;99.90;;;;;;5115301;27;20059;-73
2023/04/13 01:24:16;;;;;;;13.18;3.42;;;5.40;99.90;;;;;;5133004;27;20440;-76
2023/04/13 01:26:57;;;;;;;15.82;3.80;;;5.40;99.90;;;;;;5133330;27;20019;-73
2023/04/13 01:29:25;;;;;;;20.90;3.50;;;5.30;99.90;;;;;;5133518;27;20023;-73
2023/04/13 01:31:53;;;;;;;17.38;3.00;;;5.30;99.90;;;;;;5132610;27;20109;-74
2023/04/13 01:34:22;;;;;;;21.13;3.83;;;5.30;99.90;;;;;;5133041;27;20100;-73
2023/04/13 01:36:48;;;;;;;20.33;4.15;;;5.30;99.90;;;;;;5132524;27;20047;-76
2023/04/13 01:39:20;;;;;;;12.02;2.97;;;5.30;99.90;;;;;;5132599;27;20475;-73
2023/04/13 01:41:46;;;;;;;13.25;2.92;;;5.30;99.90;;;;;;5132818;27;20035;-73
2023/04/13 01:44:12;;;;;;;12.90;3.13;;;5.30;99.90;;;;;;5132728;27;20076;-74
2023/04/13 01:46:45;;;;;;;15.82;3.60;;;5.30;99.90;;;;;;5132878;27;20317;-73
2023/04/13 01:49:15;;;;;;;19.20;3.53;;;5.30;99.90;;;;;;5132151;27;20032;-73
2023/04/13 01:51:44;;;;;;;11.05;2.33;;;5.30;99.90;;;;;;5132812;27;20213;-73
2023/04/13 01:54:19;;;;;;;19.95;3.08;;;5.30;99.90;;;;;;5114335;27;20027;-73
2023/04/13 01:56:45;;;;;;;15.85;3.42;;;5.30;99.90;;;;;;5132829;27;20050;-74
2023/04/13 01:59:12;;;;;;;17.30;3.65;;;5.30;99.90;;;;;;5132047;27;20064;-73
2023/04/13 02:01:42;;;;;;;12.75;2.65;;;5.30;99.90;;;;;;5132372;27;20030;-73
2023/04/13 02:04:08;;;;;;;15.45;3.00;;;5.30;99.90;;;;;;5132027;27;20333;-73
2023/04/13 02:06:36;;;;;;;17.63;3.25;;;5.20;99.90;;;;;;5132108;27;20027;-73
2023/04/13 02:09:05;;;;;;;11.63;2.65;;;5.30;99.90;;;;;;5132051;27;20163;-74
2023/04/13 02:11:32;;;;;;;13.00;2.53;;;5.30;99.90;;;;;;5132652;27;20058;-74
2023/04/13 02:13:58;;;;;;;13.90;3.08;;;5.30;99.90;;;;;;5132314;27;20019;-74
2023/04/13 02:16:24;;;;;;;15.25;2.72;;;5.20;99.90;;;;;;5132762;27;20023;-73
2023/04/13 02:18:50;;;;;;;11.45;2.53;;;5.20;99.90;;;;;;5132020;27;20038;-76
2023/04/13 02:21:16;;;;;;;9.57;2.45;;;5.10;99.90;;;;;;5113948;27;20059;-74
2023/04/13 02:23:43;;;;;;;15.43;2.85;;;5.20;99.90;;;;;;5132301;27;20091;-74
2023/04/13 02:26:11;;;;;;;13.13;2.60;;;5.10;99.90;;;;;;5131681;27;20452;-74
2023/04/13 02:28:39;;;;;;;11.35;2.38;;;5.10;99.90;;;;;;5131946;27;20055;-74
2023/04/13 02:31:05;;;;;;;10.38;2.67;;;5.10;99.90;;;;;;5131563;27;20035;-75
2023/04/13 02:33:32;;;;;;;9.10;2.65;;;5.00;99.90;;;;;;5131905;27;20068;-74
2023/04/13 02:35:58;;;;;;;8.45;2.25;;;5.00;99.90;;;;;;5131790;27;20053;-74
2023/04/13 02:38:26;;;;;;;11.20;2.28;;;5.00;99.90;;;;;;5131944;27;20134;-74
2023/04/13 02:40:56;;;;;;;7.50;2.03;;;5.00;99.90;;;;;;5132040;27;20023;-77
2023/04/13 02:43:22;;;;;;;7.50;1.92;;;5.00;99.90;;;;;;5131986;27;20389;-74
2023/04/13 02:45:48;;;;;;;12.80;2.20;;;5.00;99.90;;;;;;5132024;27;20027;-74
2023/04/13 02:48:14;;;;;;;10.55;2.15;;;5.00;99.90;;;;;;5131402;27;20336;-74
2023/04/13 02:50:40;;;;;;;13.98;2.95;;;5.00;99.90;;;;;;5131636;27;20027;-73
2023/04/13 02:53:06;;;;;;;9.52;2.28;;;5.00;99.90;;;;;;5131040;27;20126;-74
2023/04/13 02:55:32;;;;;;;11.45;2.28;;;5.00;99.90;;;;;;5131721;27;20125;-73
2023/04/13 02:57:58;;;;;;;9.40;2.42;;;4.90;99.90;;;;;;5130955;27;20054;-74
2023/04/13 03:00:24;;;;;;;9.13;2.17;;;5.00;99.90;;;;;;5131592;27;20027;-72
2023/04/13 03:02:50;;;;;;;8.00;2.63;;;5.00;99.90;;;;;;5131423;28;20452;-73
2023/04/13 03:05:16;;;;;;;12.45;2.20;;;5.00;99.90;;;;;;5130972;28;20027;-73
2023/04/13 03:07:42;;;;;;;11.48;2.10;;;5.00;99.90;;;;;;5131558;28;20034;-73
2023/04/13 03:10:09;;;;;;;9.75;1.95;;;5.00;99.90;;;;;;5130992;28;20036;-73
2023/04/13 03:12:35;;;;;;;11.10;2.08;;;5.00;99.90;;;;;;5113071;28;20488;-73
2023/04/13 03:15:03;;;;;;;9.60;1.88;;;5.00;99.90;;;;;;5130901;28;20112;-73
2023/04/13 03:17:30;;;;;;;11.52;1.67;;;4.90;99.90;;;;;;5113073;28;20035;-73
2023/04/13 03:19:56;;;;;;;6.78;1.65;;;4.90;99.90;;;;;;5130939;28;20152;-76
2023/04/13 03:22:22;;;;;;;10.13;2.20;;;4.80;99.90;;;;;;5130823;28;20136;-73
2023/04/13 03:24:48;;;;;;;11.00;2.03;;;4.90;99.90;;;;;;5131542;28;20091;-74
2023/04/13 03:27:14;;;;;;;10.23;1.90;;;4.90;99.90;;;;;;5130389;28;20123;-73
2023/04/13 03:29:41;;;;;;;15.00;2.20;;;4.80;99.90;;;;;;5130975;28;20491;-73
2023/04/13 03:32:07;;;;;;;7.90;2.60;;;4.80;99.90;;;;;;5112076;28;20046;-73
2023/04/13 03:34:33;;;;;;;8.43;1.65;;;4.80;99.90;;;;;;5131120;28;20038;-73
2023/04/13 03:36:58;;;;;;;8.23;2.03;;;4.80;99.90;;;;;;5130547;28;20025;-73
2023/04/13 03:39:24;;;;;;;6.13;1.63;;;4.80;99.90;;;;;;5131050;27;20054;-73
2023/04/13 03:41:50;;;;;;;9.45;1.55;;;4.70;99.90;;;;;;5134605;27;20028;-73
2023/04/13 03:44:15;;;;;;;8.73;2.13;;;4.70;99.90;;;;;;5134554;27;20019;-72
2023/04/13 03:46:41;;;;;;;9.02;1.83;;;4.70;99.90;;;;;;5134681;27;20106;-73
2023/04/13 03:49:09;;;;;;;6.47;1.83;;;4.70;99.90;;;;;;5134464;27;20027;-73
2023/04/13 03:51:35;;;;;;;5.70;1.95;;;4.70;99.90;;;;;;5135723;27;20102;-73
2023/04/13 03:54:01;;;;;;;7.35;1.67;;;4.60;99.90;;;;;;5135379;27;20412;-74
2023/04/13 03:56:27;;;;;;;7.88;1.88;;;4.60;99.90;;;;;;5135737;27;20020;-73
2023/04/13 03:58:54;;;;;;;8.00;1.80;;;4.60;99.90;;;;;;5135940;27;20021;-73
2023/04/13 04:01:20;;;;;;;10.27;2.17;;;4.60;99.90;;;;;;5134220;27;20388;-73
2023/04/13 04:03:46;;;;;;;9.35;1.95;;;4.60;99.90;;;;;;5134978;27;20028;-73
2023/04/13 04:06:12;;;;;;;9.15;1.35;;;4.60;99.90;;;;;;5134169;27;20425;-73
2023/04/13 04:08:37;;;;;;;9.25;2.08;;;4.60;99.90;;;;;;5116285;27;20023;-73
2023/04/13 04:11:03;;;;;;;8.48;1.83;;;4.60;99.90;;;;;;5134026;27;20027;-72
2023/04/13 04:13:30;;;;;;;8.25;1.70;;;4.60;99.90;;;;;;5134808;27;20080;-73
2023/04/13 04:15:56;;;;;;;6.40;1.70;;;4.60;99.90;;;;;;5134580;27;20027;-73
2023/04/13 04:18:23;;;;;;;6.70;1.80;;;4.60;99.90;;;;;;5133747;27;20478;-72
2023/04/13 04:20:49;;;;;;;9.07;1.95;;;4.60;99.90;;;;;;5134337;27;20115;-73
2023/04/13 04:23:16;;;;;;;8.07;1.60;;;4.50;99.90;;;;;;5133692;27;20158;-73
2023/04/13 04:25:44;;;;;;;7.28;1.48;;;4.50;99.90;;;;;;5134399;27;20031;-73
2023/04/13 04:28:16;;;;;;;6.70;1.48;;;4.50;99.90;;;;;;5133787;27;20030;-73
2023/04/13 04:30:44;;;;;;;8.20;1.80;;;4.50;99.90;;;;;;5134484;27;20038;-73
2023/04/13 04:33:11;;;;;;;7.00;1.55;;;4.50;99.90;;;;;;5133849;27;20062;-73
2023/04/13 04:35:42;;;;;;;9.98;1.60;;;4.40;99.90;;;;;;5134322;27;20109;-73
2023/04/13 04:38:08;;;;;;;4.63;1.33;;;4.50;99.90;;;;;;5133829;27;20031;-73
2023/04/13 04:40:36;;;;;;;6.00;1.67;;;4.50;99.90;;;;;;5134326;27;20080;-73
2023/04/13 04:43:03;;;;;;;5.75;1.50;;;4.50;99.90;;;;;;5133511;27;20072;-73
2023/04/13 04:45:31;;;;;;;7.95;1.58;;;4.50;99.90;;;;;;5134067;27;20110;-73
2023/04/13 04:47:57;;;;;;;5.80;1.45;;;4.40;99.90;;;;;;5133789;27;20023;-73
2023/04/13 04:50:24;;;;;;;11.60;1.83;;;4.40;99.90;;;;;;5133037;27;20019;-73
2023/04/13 04:52:50;;;;;;;5.90;1.33;;;4.40;99.90;;;;;;5132438;27;20345;-74
2023/04/13 04:55:16;;;;;;;11.43;2.13;;;4.30;99.90;;;;;;5132800;27;20019;-73
2023/04/13 04:57:42;;;;;;;5.60;1.58;;;4.30;99.90;;;;;;5133298;27;20439;-73
2023/04/13 05:00:14;;;;;;;5.05;1.40;;;4.20;99.90;;;;;;5132995;27;20068;-74
2023/04/13 05:02:40;;;;;;;6.88;1.30;;;4.20;99.90;;;;;;5133487;27;20060;-74
2023/04/13 05:05:06;;;;;;;4.93;1.35;;;4.20;99.90;;;;;;5132704;27;20023;-75
2023/04/13 05:07:31;;;;;;;8.55;1.98;;;4.20;99.90;;;;;;5133172;27;20087;-74
2023/04/13 05:09:57;;;;;;;13.20;2.13;;;4.20;99.90;;;;;;5133295;27;20035;-73
2023/04/13 05:12:23;;;;;;;11.90;2.83;;;4.20;99.90;;;;;;5132512;27;20468;-74
2023/04/13 05:14:49;;;;;;;7.07;2.58;;;4.20;99.90;;;;;;5133088;27;20031;-74
2023/04/13 05:17:18;;;;;;;11.32;2.50;;;4.20;99.90;;;;;;5132501;27;20042;-74
2023/04/13 05:19:45;;;;;;;10.75;2.55;;;4.10;99.90;;;;;;5133312;27;20388;-74
2023/04/13 05:22:11;;;;;;;9.52;2.75;;;4.20;99.90;;;;;;5132258;27;20436;-74
2023/04/13 05:24:37;;;;;;;11.13;2.10;;;4.20;99.90;;;;;;5133164;27;20019;-74
2023/04/13 05:27:04;;;;;;;11.38;2.35;;;4.10;99.90;;;;;;5132443;27;20379;-77
2023/04/13 05:29:32;;;;;;;13.98;2.72;;;4.10;99.90;;;;;;5133110;27;20421;-74
2023/04/13 05:31:58;;;;;;;9.45;2.20;;;4.10;99.90;;;;;;5133293;27;20415;-73
2023/04/13 05:34:24;;;;;;;11.90;2.17;;;4.20;99.90;;;;;;5132356;27;20864;-73
2023/04/13 05:36:52;;;;;;;15.98;2.60;;;4.20;99.90;;;;;;5133648;27;20111;-73
2023/04/13 05:39:20;;;;;;;6.22;1.52;;;4.10;99.90;;;;;;5113812;27;20072;-73
2023/04/13 05:41:47;;;;;;;8.93;1.75;;;4.20;99.90;;;;;;5132637;27;20113;-73
2023/04/13 05:44:12;;;;;;;12.38;2.60;;;4.20;99.90;;;;;;5132274;27;20027;-74
2023/04/13 05:46:38;;;;;;;7.50;1.73;;;4.20;99.90;;;;;;5132364;27;20031;-73
2023/04/13 05:49:04;;;;;;;8.70;2.03;;;4.20;99.90;;;;;;5132760;27;20023;-76
2023/04/13 05:51:31;;;;;;;8.77;1.83;;;4.30;99.90;;;;;;5132639;27;20072;-73
2023/04/13 05:53:57;;;;;;;11.85;2.55;;;4.30;99.90;;;;;;5132298;27;20470;-74
2023/04/13 05:56:28;;;;;;;9.23;2.13;;;4.30;99.90;;;;;;5131809;27;20034;-73
2023/04/13 05:58:54;;;;;;;6.80;1.83;;;4.30;99.90;;;;;;5132748;27;20416;-73
2023/04/13 06:01:22;;;;;;;4.80;1.70;;;4.30;99.90;;;;;;5131947;27;20023;-73
2023/04/13 06:03:47;;;;;;;8.80;2.00;;;4.40;99.90;;;;;;5132004;27;20111;-72
2023/04/13 06:06:16;;;;;;;6.60;1.90;;;4.40;99.90;;;;;;5131754;27;20026;-73
2023/04/13 06:08:42;;;;;;;7.57;2.08;;;4.50;99.90;;;;;;5132572;27;20158;-74
2023/04/13 06:11:08;;;;;;;9.02;1.98;;;4.60;99.90;;;;;;5131972;27;20038;-75
2023/04/13 06:13:35;;;;;;;6.95;1.77;;;4.70;99.90;;;;;;5132073;27;20099;-74
2023/04/13 06:16:01;;;;;;;10.70;1.45;;;4.70;99.90;;;;;;5132542;27;20023;-74
2023/04/13 06:18:27;;;;;;;7.25;1.63;;;4.80;99.90;;;;;;5131982;27;20592;-74
2023/04/13 06:20:53;;;;;;;6.55;2.35;;;4.80;99.90;;;;;;5132108;27;20363;-74
2023/04/13 06:23:19;;;;;;;11.27;1.88;;;5.00;99.90;;;;;;5131183;27;20049;-73
2023/04/13 06:25:45;;;;;;;5.85;1.70;;;5.00;99.90;;;;;;5132151;27;20031;-73
2023/04/13 06:28:13;;;;;;;10.05;2.17;;;5.10;99.90;;;;;;5131567;27;20023;-75
2023/04/13 06:30:39;;;;;;;3.60;1.27;;;5.10;99.90;;;;;;5132057;27;20371;-74
2023/04/13 06:33:05;;;;;;;6.78;1.70;;;5.20;99.90;;;;;;5131834;27;20088;-74
2023/04/13 06:35:32;;;;;;;7.68;2.00;;;5.30;99.90;;;;;;5131345;27;20405;-73
2023/04/13 06:38:00;;;;;;;9.25;1.73;;;5.40;99.90;;;;;;5131775;27;20095;-73
2023/04/13 06:40:26;;;;;;;5.85;1.50;;;5.50;99.90;;;;;;5131354;27;20023;-73
2023/04/13 06:42:53;;;;;;;4.15;1.40;;;5.50;99.90;;;;;;5131753;27;20037;-73
2023/04/13 06:45:20;;;;;;;2.90;1.35;;;5.60;99.90;;;;;;5131325;27;20023;-73
2023/04/13 06:47:46;;;;;;;6.55;1.38;;;5.70;99.90;;;;;;5140257;27;20023;-73
2023/04/13 06:50:15;;;;;;;7.85;1.55;;;5.80;99.90;;;;;;5142546;27;20015;-74
2023/04/13 06:52:43;;;;;;;7.22;1.65;;;5.90;99.90;;;;;;5120912;27;20027;-74
2023/04/13 06:55:08;;;;;;;5.55;1.25;;;6.00;99.90;;;;;;5131549;27;20485;-76
2023/04/13 06:57:34;;;;;;;5.45;1.40;;;6.10;99.90;;;;;;5131166;27;20019;-73
2023/04/13 07:00:00;;;;;;;5.38;1.50;;;6.20;99.90;;;;;;5131685;27;20024;-73
2023/04/13 07:02:26;;;;;;;7.57;1.42;;;6.30;99.90;;;;;;5131032;27;20032;-73
2023/04/13 07:04:52;;;;;;;10.20;2.15;;;6.30;99.90;;;;;;5131879;27;20491;-73
2023/04/13 07:07:18;;;;;;;6.28;1.67;;;6.30;99.90;;;;;;5130659;28;20040;-73
2023/04/13 07:09:44;;;;;;;5.88;1.50;;;6.40;99.90;;;;;;5131091;28;20037;-73
2023/04/13 07:12:10;;;;;;;5.47;1.48;;;6.50;99.90;;;;;;5131165;28;20023;-77
2023/04/13 07:14:38;;;;;;;9.23;1.73;;;6.60;99.90;;;;;;5131270;27;20023;-73
2023/04/13 07:17:04;;;;;;;5.55;1.42;;;6.70;99.90;;;;;;5135134;27;20027;-73
2023/04/13 07:19:31;;;;;;;5.93;1.63;;;6.80;99.90;;;;;;5135189;27;20031;-73
2023/04/13 07:22:00;;;;;;;3.83;1.35;;;6.90;99.90;;;;;;5135645;27;20047;-74
2023/04/13 07:24:27;;;;;;;9.80;1.63;;;7.00;99.90;;;;;;5134838;27;20134;-74
2023/04/13 07:26:56;;;;;;;5.80;1.60;;;7.10;99.90;;;;;;5135307;27;20160;-74
2023/04/13 07:29:23;;;;;;;3.80;1.42;;;7.10;99.90;;;;;;5134375;27;20059;-74
2023/04/13 07:31:50;;;;;;;7.15;1.70;;;7.10;99.90;;;;;;5135710;27;20027;-74
2023/04/13 07:34:16;;;;;;;6.93;1.65;;;7.20;99.90;;;;;;5134485;27;20405;-74
2023/04/13 07:36:42;;;;;;;6.40;1.50;;;7.20;99.90;;;;;;5116684;27;20027;-74
2023/04/13 07:39:09;;;;;;;7.03;1.73;;;7.30;99.90;;;;;;5135027;27;20027;-73
2023/04/13 07:41:35;;;;;;;8.65;1.48;;;7.30;99.90;;;;;;5134282;27;20047;-74
2023/04/13 07:44:04;;;;;;;5.55;1.38;;;7.50;99.90;;;;;;5135459;27;20023;-73
2023/04/13 07:46:31;;;;;;;5.70;1.80;;;7.50;99.90;;;;;;5134678;27;20019;-74
2023/04/13 07:48:57;;;;;;;7.32;1.73;;;7.70;99.90;;;;;;5135402;27;20027;-74
2023/04/13 07:51:23;;;;;;;4.38;1.30;;;7.90;99.90;;;;;;5134434;27;20038;-73
2023/04/13 07:53:51;;;;;;;6.72;1.83;;;8.00;99.90;;;;;;5135042;27;20026;-74
2023/04/13 07:56:17;;;;;;;6.35;1.70;;;8.20;99.90;;;;;;5134502;27;20034;-74
2023/04/13 07:58:43;;;;;;;6.22;1.60;;;8.30;99.90;;;;;;5134981;27;20047;-74
2023/04/13 08:01:10;;;;;;;8.77;1.92;;;8.30;99.90;;;;;;5134513;27;20102;-74
2023/04/13 08:03:36;;;;;;;5.70;2.08;;;8.30;99.90;;;;;;5134118;27;20110;-73
2023/04/13 08:06:08;;;;;;;5.05;1.38;;;8.40;99.90;;;;;;5115990;27;20102;-74
2023/04/13 08:08:34;;;;;;;10.82;1.52;;;8.60;99.90;;;;;;5133956;27;20019;-74
2023/04/13 08:11:00;;;;;;;7.75;1.48;;;8.70;99.90;;;;;;5134482;27;20071;-74
2023/04/13 08:13:27;;;;;;;10.77;1.75;;;8.70;99.90;;;;;;5134053;27;20030;-74
2023/04/13 08:15:56;;;;;;;4.97;1.27;;;8.90;99.90;;;;;;5134896;27;20092;-74
2023/04/13 08:18:26;;;;;;;6.68;1.75;;;8.80;99.90;;;;;;5133955;27;20463;-75
2023/04/13 08:20:53;;;;;;;10.68;2.25;;;8.90;99.90;;;;;;5134424;27;20122;-74
2023/04/13 08:23:20;;;;;;;6.22;1.77;;;8.90;99.90;;;;;;5133588;27;20055;-74
2023/04/13 08:25:46;;;;;;;7.05;1.50;;;9.00;99.90;;;;;;5134148;27;20170;-74
2023/04/13 08:28:12;;;;;;;5.57;1.58;;;9.20;99.90;;;;;;5134541;27;20062;-74
2023/04/13 08:30:38;;;;;;;8.88;2.33;;;9.20;99.90;;;;;;5134107;27;20019;-74
2023/04/13 08:33:04;;;;;;;11.38;1.85;;;9.30;99.90;;;;;;5116056;27;20058;-75
2023/04/13 08:35:30;;;;;;;8.10;1.52;;;9.40;99.90;;;;;;5133796;27;20027;-74
2023/04/13 08:37:55;;;;;;;8.77;1.58;;;9.50;99.90;;;;;;5134124;27;20034;-74
2023/04/13 08:40:21;;;;;;;7.10;1.80;;;9.60;99.90;;;;;;5134010;27;20020;-74
2023/04/13 08:42:47;;;;;;;9.00;1.73;;;9.60;99.90;;;;;;5115793;27;20429;-75
2023/04/13 08:45:14;;;;;;;7.38;1.88;;;9.60;99.90;;;;;;5139175;27;20026;-75
2023/04/13 08:47:40;;;;;;;11.45;2.03;;;9.80;99.90;;;;;;5154525;27;20463;-74
2023/04/13 08:50:09;;;;;;;8.35;1.98;;;9.80;99.90;;;;;;5136072;27;20023;-74
2023/04/13 08:52:35;;;;;;;9.02;1.48;;;9.80;99.90;;;;;;5153930;27;20049;-74
2023/04/13 08:55:03;;;;;;;8.80;1.63;;;9.80;99.90;;;;;;5153742;27;20038;-74
2023/04/13 08:57:30;;;;;;;8.82;1.77;;;9.90;99.90;;;;;;5153914;27;20018;-74
2023/04/13 08:59:57;;;;;;;7.15;1.52;;;9.90;99.90;;;;;;5153850;27;20143;-74
2023/04/13 09:02:32;;;;;;;8.52;2.08;;;10.10;99.90;;;;;;5152993;27;20048;-74
2023/04/13 09:05:04;;;;;;;7.85;1.40;;;10.10;99.90;;;;;;5153873;27;20460;-74
2023/04/13 09:07:33;;;;;;;9.13;1.83;;;10.10;99.90;;;;;;5152869;27;20115;-75
2023/04/13 09:09:59;;;;;;;3.03;1.13;;;10.20;99.90;;;;;;5153144;27;20364;-75
2023/04/13 09:12:27;;;;;;;7.60;1.52;;;10.20;99.90;;;;;;5153236;27;20447;-74
2023/04/13 09:14:53;;;;;;;10.10;1.98;;;10.20;99.90;;;;;;5153688;27;20023;-75
2023/04/13 09:17:28;;;;;;;6.68;1.70;;;10.30;99.90;;;;;;5153271;27;20023;-75
2023/04/13 09:20:10;;;;;;;11.25;1.70;;;10.40;99.90;;;;;;5153609;27;20018;-75
2023/04/13 09:22:36;;;;;;;5.93;1.70;;;10.40;99.90;;;;;;5152810;27;20756;-75
2023/04/13 09:25:04;;;;;;;8.68;1.75;;;10.40;99.90;;;;;;5153774;27;20283;-74
2023/04/13 09:27:30;;;;;;;9.82;1.48;;;10.40;99.90;;;;;;5153048;27;20083;-75
2023/04/13 09:29:56;;;;;;;7.72;1.70;;;10.40;99.90;;;;;;5153365;27;20030;-74
2023/04/13 09:32:26;;;;;;;8.85;1.83;;;10.50;99.90;;;;;;5152828;27;20097;-76
2023/04/13 09:35:03;;;;;;;8.05;1.80;;;10.50;99.90;;;;;;5153449;27;20088;-74
2023/04/13 09:37:33;;;;;;;8.18;1.80;;;10.40;99.90;;;;;;5152820;27;20053;-74
2023/04/13 09:40:10;;;;;;;10.95;2.10;;;10.50;99.90;;;;;;5153536;27;20023;-74
2023/04/13 09:42:38;;;;;;;5.32;1.52;;;10.50;99.90;;;;;;5152921;27;20063;-75
2023/04/13 09:45:05;;;;;;;5.50;1.58;;;10.50;99.90;;;;;;5135733;27;20435;-75
2023/04/13 09:47:39;;;;;;;5.85;1.30;;;10.50;99.90;;;;;;5139728;27;20371;-75
2023/04/13 09:50:16;;;;;;;7.60;1.60;;;10.60;99.90;;;;;;5114397;27;20084;-75
2023/04/13 09:52:42;;;;;;;9.32;1.70;;;10.70;99.90;;;;;;5115896;27;20050;-73
2023/04/13 09:55:15;;;;;;;10.50;1.80;;;10.50;99.90;;;;;;5135037;27;20035;-73
2023/04/13 09:57:41;;;;;;;9.50;1.52;;;10.50;99.90;;;;;;5116456;27;20115;-74
2023/04/13 10:00:13;;;;;;;10.18;2.10;;;10.60;99.90;;;;;;5134164;27;20043;-74
2023/04/13 10:02:40;;;;;;;5.03;1.65;;;10.60;99.90;;;;;;5132693;27;20094;-74
2023/04/13 10:05:08;;;;;;;6.63;1.50;;;10.70;99.90;;;;;;5132882;27;20039;-74
2023/04/13 10:07:36;;;;;;;11.98;1.90;;;10.80;99.90;;;;;;5131893;27;20122;-74
2023/04/13 10:10:02;;;;;;;7.53;2.05;;;10.90;99.90;;;;;;5131919;27;20034;-74
2023/04/13 10:12:31;;;;;;;9.80;2.08;;;11.00;99.90;;;;;;5132149;27;20023;-74
2023/04/13 10:15:11;;;;;;;7.75;1.92;;;11.10;99.90;;;;;;5132567;27;20098;-75
2023/04/13 10:17:55;;;;;;;8.23;1.80;;;11.00;99.90;;;;;;5131344;27;20023;-75
2023/04/13 10:20:21;;;;;;;7.82;1.60;;;11.10;99.90;;;;;;5132304;27;20027;-78
2023/04/13 10:22:47;;;;;;;7.57;1.60;;;11.20;99.90;;;;;;5132117;27;20282;-75
2023/04/13 10:25:14;;;;;;;10.63;2.67;;;11.20;99.90;;;;;;5113716;27;20023;-75
2023/04/13 10:27:41;;;;;;;6.05;1.70;;;11.30;99.90;;;;;;5131582;27;20027;-75
2023/04/13 10:30:16;;;;;;;8.32;2.13;;;11.30;99.90;;;;;;5132258;27;20024;-74
2023/04/13 10:32:42;;;;;;;13.88;3.17;;;11.20;99.90;;;;;;5131031;27;20042;-74
2023/04/13 10:35:14;;;;;;;6.45;1.50;;;11.10;99.90;;;;;;5131896;27;20023;-74
2023/04/13 10:37:41;;;;;;;6.28;1.85;;;10.90;99.90;;;;;;5131185;27;20111;-73
2023/04/13 10:40:09;;;;;;;11.23;2.08;;;10.90;99.90;;;;;;5131534;27;20060;-74
2023/04/13 10:42:43;;;;;;;4.75;1.80;;;10.90;99.90;;;;;;5112788;27;20031;-74
2023/04/13 10:45:36;;;;;;;5.68;1.48;;;10.90;99.90;;;;;;5131711;27;20062;-74
2023/04/13 10:48:02;;;;;;;8.82;2.33;;;10.90;99.90;;;;;;5127409;27;20515;-75
2023/04/13 10:50:28;;;;;;;9.95;2.03;;;10.80;99.90;;;;;;5130721;27;20028;-75
2023/04/13 10:52:54;;;;;;;7.72;2.10;;;10.80;99.90;;;;;;5131787;27;20402;-76
2023/04/13 10:55:24;;;;;;;9.07;1.92;;;11.00;99.90;;;;;;5131333;27;20029;-74
2023/04/13 10:57:50;;;;;;;10.07;1.70;;;11.00;99.90;;;;;;5130603;27;20093;-73
2023/04/13 11:00:23;;;;;;;7.88;1.58;;;11.10;99.90;;;;;;5130009;27;20083;-74
2023/04/13 11:02:50;;;;;;;11.10;2.20;;;11.10;99.90;;;;;;5130726;27;20031;-74
2023/04/13 11:05:19;;;;;;;6.05;1.42;;;11.20;99.90;;;;;;5131419;28;20106;-74
2023/04/13 11:07:46;;;;;;;6.45;1.77;;;11.30;99.90;;;;;;5130155;28;20367;-73
2023/04/13 11:10:11;;;;;;;4.88;1.60;;;11.30;99.90;;;;;;5131353;28;20050;-75
2023/04/13 11:12:38;;;;;;;6.22;1.73;;;11.30;99.90;;;;;;5130563;28;20074;-74
2023/04/13 11:15:04;;;;;;;6.97;1.75;;;11.40;99.90;;;;;;5130884;28;20027;-75
2023/04/13 11:17:30;;;;;;;6.65;1.45;;;11.50;99.90;;;;;;5130150;28;20115;-75
2023/04/13 11:19:56;;;;;;;4.60;1.73;;;11.50;99.90;;;;;;5130866;28;20055;-74
2023/04/13 11:22:24;;;;;;;6.80;1.77;;;11.70;99.90;;;;;;5131122;27;20049;-76
2023/04/13 11:24:50;;;;;;;7.35;1.80;;;11.70;99.90;;;;;;5130888;28;20050;-75
2023/04/13 11:27:21;;;;;;;8.75;1.65;;;11.70;99.90;;;;;;5130528;28;20030;-75
2023/04/13 11:30:04;;;;;;;4.95;1.27;;;11.80;99.90;;;;;;5130581;28;20027;-75
2023/04/13 11:32:31;;;;;;;6.67;1.30;;;11.80;99.90;;;;;;5130988;28;20027;-75
2023/04/13 11:35:13;;;;;;;11.15;1.80;;;11.90;99.90;;;;;;5130834;28;20110;-74
2023/04/13 11:37:44;;;;;;;6.97;1.73;;;12.00;99.90;;;;;;5112498;28;20352;-75
2023/04/13 11:40:19;;;;;;;8.10;1.33;;;12.10;99.90;;;;;;5131014;28;20153;-75
2023/04/13 11:42:47;;;;;;;10.70;1.70;;;12.20;99.90;;;;;;5137909;27;20031;-76
2023/04/13 11:45:15;;;;;;;6.35;1.65;;;12.20;99.90;;;;;;5151645;27;20388;-74
2023/04/13 11:47:41;;;;;;;5.40;1.20;;;12.00;99.90;;;;;;5150548;27;20406;-74
2023/04/13 11:50:08;;;;;;;6.07;1.38;;;12.00;99.90;;;;;;5150637;27;20018;-75
2023/04/13 11:52:34;;;;;;;6.70;1.80;;;12.00;99.90;;;;;;5150359;27;20477;-74
2023/04/13 11:55:05;;;;;;;5.47;1.48;;;12.10;99.90;;;;;;5150957;27;20023;-74
2023/04/13 11:57:34;;;;;;;6.72;1.77;;;12.20;99.90;;;;;;5150160;27;20101;-75
2023/04/13 12:00:00;;;;;;;5.35;1.30;;;12.20;99.90;;;;;;5150592;27;20447;-74
2023/04/13 12:02:28;;;;;;;4.65;1.30;;;12.20;99.90;;;;;;5152939;27;20155;-77
2023/04/13 12:04:54;;;;;;;4.85;1.60;;;12.40;99.90;;;;;;5135838;27;20042;-75
2023/04/13 12:07:20;;;;;;;6.78;1.50;;;12.50;99.90;;;;;;5135570;27;20439;-75
2023/04/13 12:09:47;;;;;;;5.47;1.30;;;12.50;99.90;;;;;;5135089;27;20102;-75
2023/04/13 12:12:21;;;;;;;5.45;1.45;;;12.60;99.90;;;;;;5151260;27;20460;-75
2023/04/13 12:14:54;;;;;;;7.43;1.70;;;12.60;99.90;;;;;;5154274;27;20027;-75
2023/04/13 12:17:20;;;;;;;8.20;1.60;;;12.80;99.90;;;;;;5154679;27;20022;-75
2023/04/13 12:19:52;;;;;;;3.65;1.48;;;12.90;99.90;;;;;;5154428;27;20109;-75
2023/04/13 12:22:18;;;;;;;7.60;1.52;;;12.80;99.90;;;;;;5154780;27;20041;-75
2023/04/13 12:24:43;;;;;;;5.35;1.48;;;12.80;99.90;;;;;;5154402;27;20030;-74
2023/04/13 12:27:09;;;;;;;7.75;2.50;;;12.80;99.90;;;;;;5153884;27;20094;-74
2023/04/13 12:29:41;;;;;;;5.03;1.60;;;13.00;99.90;;;;;;5154198;27;20102;-74
2023/04/13 12:32:12;;;;;;;8.60;2.15;;;12.80;99.90;;;;;;5154282;27;20038;-73
2023/04/13 12:34:40;;;;;;;5.30;1.50;;;12.70;99.90;;;;;;5154036;27;20023;-74
2023/04/13 12:37:06;;;;;;;7.68;2.10;;;12.70;99.90;;;;;;5150411;27;20100;-74
2023/04/13 12:39:32;;;;;;;5.10;1.65;;;12.90;99.90;;;;;;5127600;27;20026;-74
2023/04/13 12:41:58;;;;;;;5.78;2.00;;;13.00;99.90;;;;;;5154289;27;20027;-77
2023/04/13 12:44:23;;;;;;;6.68;2.00;;;12.90;99.90;;;;;;5135661;27;20527;-74
2023/04/13 12:46:50;;;;;;;7.20;1.90;;;12.90;99.90;;;;;;5130049;27;20076;-74
2023/04/13 12:49:15;;;;;;;3.55;1.50;;;13.00;99.90;;;;;;5138330;27;20035;-74
2023/04/13 12:51:41;;;;;;;9.10;1.83;;;13.10;99.90;;;;;;5139389;27;20389;-73
2023/04/13 12:54:11;;;;;;;4.53;1.35;;;13.20;99.90;;;;;;5154096;27;20030;-73